Time;durP1;ratioP1;P1;durP2;ratioP2;P2;SDS_P1;SDS_P2;PMS_P1;PMS_P2;Temp;Humidity;BMP_temperature;BMP_pressure;BME280_temperature;BME280_humidity;BME280_pressure;Samples;Min_cycle;Max_cycle;Signal;HPM_P1;HPM_P2
2022/01/03 00:01:58;;;;;;;5.28;2.88;;;;;;;19.35;57.22;97071.63;10367785;28;20037;-22
2022/01/03 00:06:59;;;;;;;6.43;2.97;;;;;;;19.37;57.55;97064.03;10368285;28;20443;-22
2022/01/03 00:11:59;;;;;;;5.95;2.63;;;;;;;19.36;57.59;97062.34;10368233;28;20120;-22
2022/01/03 00:17:00;;;;;;;10.00;3.00;;;;;;;19.33;57.75;97067.41;10399504;28;20045;-22
2022/01/03 00:22:06;;;;;;;8.70;2.97;;;;;;;19.34;57.70;97051.34;10374584;28;20121;-23
2022/01/03 00:27:14;;;;;;;3.65;2.50;;;;;;;19.29;57.73;97025.94;10367887;28;20026;-22
2022/01/03 00:32:14;;;;;;;6.43;2.97;;;;;;;19.32;57.35;97030.16;10367884;28;20091;-22
2022/01/03 00:37:16;;;;;;;7.50;2.30;;;;;;;19.35;57.81;97047.94;10367443;28;20096;-22
2022/01/03 00:42:16;;;;;;;8.95;2.50;;;;;;;19.31;58.03;97039.47;10367564;28;20169;-22
2022/01/03 00:47:17;;;;;;;7.68;3.08;;;;;;;19.33;57.86;97037.78;10367504;28;20117;-22
2022/01/03 00:52:18;;;;;;;8.57;2.90;;;;;;;19.14;57.42;97008.09;10397580;28;20063;-22
2022/01/03 00:57:28;;;;;;;7.37;3.13;;;;;;;19.34;57.37;97042.00;10397410;28;20070;-22
2022/01/03 01:02:35;;;;;;;5.35;2.30;;;;;;;19.34;57.24;97039.47;10371483;28;20269;-22
2022/01/03 01:07:38;;;;;;;6.25;2.13;;;;;;;19.34;57.61;97024.25;10373821;28;20091;-22
2022/01/03 01:12:43;;;;;;;5.72;2.75;;;;;;;19.34;57.54;97031.03;10373181;28;20504;-22
2022/01/03 01:17:45;;;;;;;7.13;2.70;;;;;;;19.25;57.00;97013.25;10411045;28;20372;-22
2022/01/03 01:22:46;;;;;;;8.88;2.83;;;;;;;19.26;57.64;97007.31;10374983;28;20519;-22
2022/01/03 01:27:49;;;;;;;7.07;2.75;;;;;;;19.31;57.69;97023.38;10372442;28;20447;-22
2022/01/03 01:33:08;;;;;;;5.65;2.67;;;;;;;19.34;58.02;97015.81;10373434;28;20038;-22
2022/01/03 01:38:11;;;;;;;8.10;3.10;;;;;;;19.33;57.68;97016.66;10389004;28;20117;-22
2022/01/03 01:43:17;;;;;;;5.07;2.00;;;;;;;19.33;57.59;97009.84;10371908;28;20534;-22
2022/01/03 01:48:23;;;;;;;6.80;2.33;;;;;;;19.34;57.41;97023.41;10372989;28;20028;-22
2022/01/03 01:53:26;;;;;;;6.38;2.70;;;;;;;19.35;57.65;97032.72;10410868;28;20133;-22
2022/01/03 01:59:01;;;;;;;5.43;2.63;;;;;;;19.34;57.77;97039.47;10388568;28;20046;-22
2022/01/03 02:04:16;;;;;;;7.95;2.50;;;;;;;19.23;57.96;96994.59;10367085;28;20041;-22
2022/01/03 02:09:19;;;;;;;3.85;2.10;;;;;;;19.34;57.80;97036.09;10364797;28;20120;-22
2022/01/03 02:14:22;;;;;;;5.00;2.53;;;;;;;19.34;57.72;97038.66;10378228;28;20138;-22
2022/01/03 02:19:24;;;;;;;3.55;1.73;;;;;;;19.33;57.38;97037.78;10395200;28;20061;-22
2022/01/03 02:24:25;;;;;;;5.70;2.05;;;;;;;19.35;57.92;97063.19;10366270;28;20561;-22
2022/01/03 02:29:26;;;;;;;6.07;2.17;;;;;;;19.33;57.59;97034.41;10368947;28;20124;-22
2022/01/03 02:34:29;;;;;;;7.15;2.17;;;;;;;19.32;57.49;97036.09;10366333;28;20125;-22
2022/01/03 02:39:30;;;;;;;5.43;2.65;;;;;;;19.33;57.55;97016.66;10366133;28;20033;-22
2022/01/03 02:44:31;;;;;;;9.45;2.42;;;;;;;19.34;57.53;97016.63;10365056;28;20523;-22
2022/01/03 02:49:31;;;;;;;4.50;1.88;;;;;;;19.33;57.85;97011.56;10376433;28;20029;-22
2022/01/03 02:54:32;;;;;;;4.85;1.67;;;;;;;19.33;57.93;97017.47;10406186;28;20392;-22
2022/01/03 02:59:33;;;;;;;5.47;2.55;;;;;;;19.33;57.70;97016.66;10383519;28;20037;-22
2022/01/03 03:04:54;;;;;;;4.70;2.53;;;;;;;19.33;57.66;97016.66;10364830;28;20036;-22
2022/01/03 03:09:56;;;;;;;6.35;1.88;;;;;;;19.30;57.85;97002.25;10362757;28;20061;-22
2022/01/03 03:14:57;;;;;;;3.85;2.00;;;;;;;19.34;57.83;97028.50;10395868;28;20081;-22
2022/01/03 03:20:02;;;;;;;3.75;1.77;;;;;;;19.32;57.68;97023.41;10388132;28;20050;-22
2022/01/03 03:25:08;;;;;;;8.93;2.20;;;;;;;19.33;57.25;97016.66;10363429;28;20036;-22
2022/01/03 03:30:20;;;;;;;4.93;1.85;;;;;;;19.33;57.55;97021.72;10370642;28;20034;-22
2022/01/03 03:35:22;;;;;;;3.88;2.30;;;;;;;19.32;57.78;97020.88;10380269;28;20401;-22
2022/01/03 03:40:22;;;;;;;4.88;1.90;;;;;;;19.32;57.61;97020.00;10363270;28;20478;-22
2022/01/03 03:45:25;;;;;;;4.13;2.00;;;;;;;19.24;57.66;97012.38;10362662;28;20034;-22
2022/01/03 03:50:26;;;;;;;3.42;1.58;;;;;;;19.30;57.69;97009.88;10381062;28;20040;-22
2022/01/03 03:55:28;;;;;;;4.53;1.90;;;;;;;19.29;58.01;97025.94;10405288;28;20551;-22
2022/01/03 04:00:30;;;;;;;6.78;2.33;;;;;;;19.32;57.44;97035.22;10378189;28;20034;-22
2022/01/03 04:05:35;;;;;;;8.77;2.28;;;;;;;19.32;57.67;97020.00;10362743;28;20046;-21
2022/01/03 04:10:36;;;;;;;4.80;1.70;;;;;;;19.32;57.48;97009.84;10362771;28;20037;-22
2022/01/03 04:15:37;;;;;;;3.47;1.80;;;;;;;19.30;57.64;97017.47;10385119;28;20044;-22
2022/01/03 04:20:38;;;;;;;9.18;2.00;;;;;;;19.30;57.26;97007.31;10380928;28;20045;-22
2022/01/03 04:25:38;;;;;;;6.20;1.63;;;;;;;19.30;57.82;97006.47;10382964;28;20063;-22
2022/01/03 04:30:39;;;;;;;4.68;1.60;;;;;;;19.31;57.52;96992.94;10367416;28;20662;-22
2022/01/03 04:35:39;;;;;;;7.70;2.08;;;;;;;19.29;57.84;97005.63;10368893;28;20034;-22
2022/01/03 04:40:41;;;;;;;4.15;1.90;;;;;;;19.29;57.85;97002.25;10375565;28;20030;-22
2022/01/03 04:45:41;;;;;;;7.20;1.98;;;;;;;19.29;57.62;96997.16;10375511;28;20038;-22
2022/01/03 04:50:41;;;;;;;3.33;1.80;;;;;;;19.31;57.92;96990.38;10394664;28;20044;-22
2022/01/03 04:55:43;;;;;;;6.05;2.10;;;;;;;19.35;57.93;96995.47;10414338;28;20041;-22
2022/01/03 05:00:43;;;;;;;6.00;1.90;;;;;;;19.35;57.89;96999.72;10377230;28;20034;-22
2022/01/03 05:05:44;;;;;;;3.03;1.50;;;;;;;19.38;57.52;96995.50;10374713;28;20089;-22
2022/01/03 05:10:44;;;;;;;6.30;1.92;;;;;;;19.38;57.77;96995.50;10373143;28;20033;-22
2022/01/03 05:15:46;;;;;;;5.63;1.70;;;;;;;19.37;57.77;96987.84;10396721;28;20128;-22
2022/01/03 05:20:47;;;;;;;2.65;1.80;;;;;;;19.38;57.65;96992.09;10383762;28;20124;-22
2022/01/03 05:25:48;;;;;;;6.45;1.85;;;;;;;19.38;57.69;96980.25;10373892;28;20033;-22
2022/01/03 05:30:48;;;;;;;3.70;1.55;;;;;;;19.37;57.59;96987.84;10412283;28;20497;-22
2022/01/03 05:35:49;;;;;;;4.45;1.58;;;;;;;19.38;57.64;96977.72;10388366;28;20112;-22
2022/01/03 05:40:50;;;;;;;4.32;1.27;;;;;;;19.41;57.66;96989.56;10404422;28;20076;-22
2022/01/03 05:45:50;;;;;;;5.82;1.88;;;;;;;19.46;56.79;96982.78;10389267;28;20033;-22
2022/01/03 05:50:51;;;;;;;6.05;2.10;;;;;;;19.47;57.33;96971.78;10407948;28;20030;-21
2022/01/03 05:55:52;;;;;;;5.63;2.40;;;;;;;19.46;57.21;96983.66;10413794;28;20030;-22
2022/01/03 06:00:53;;;;;;;9.63;2.63;;;;;;;19.45;57.76;96991.25;10379569;28;20042;-22
2022/01/03 06:11:00;;;;;;;5.03;2.03;;;;;;;19.42;57.54;96981.09;10387671;28;20034;-22
2022/01/03 06:16:04;;;;;;;6.88;1.95;;;;;;;19.45;57.53;96986.19;10411066;28;20134;-22
2022/01/03 06:21:07;;;;;;;5.22;1.90;;;;;;;19.42;57.19;96996.34;10386030;28;20034;-22
2022/01/03 06:26:12;;;;;;;5.25;1.67;;;;;;;19.40;57.42;96975.16;10370039;28;20033;-22
2022/01/03 06:31:17;;;;;;;8.57;1.88;;;;;;;19.39;57.59;96976.00;10382190;28;20038;-22
2022/01/03 06:36:17;;;;;;;4.95;1.85;;;;;;;19.39;57.51;96968.38;10386379;28;20411;-22
2022/01/03 06:41:18;;;;;;;3.72;1.88;;;;;;;19.40;57.41;96963.31;10369755;28;20030;-23
2022/01/03 06:46:19;;;;;;;3.58;1.73;;;;;;;19.41;56.85;96954.84;10369368;28;20510;-22
2022/01/03 06:51:20;;;;;;;5.35;2.30;;;;;;;19.40;57.14;96955.69;10396830;28;20036;-22
2022/01/03 06:56:20;;;;;;;3.63;1.67;;;;;;;19.39;57.12;96950.63;10404810;28;20413;-22
2022/01/03 07:01:21;;;;;;;8.55;1.95;;;;;;;19.39;57.08;96945.53;10367964;28;20052;-22
2022/01/03 07:06:22;;;;;;;2.25;1.20;;;;;;;19.33;57.16;96928.63;10396468;28;20067;-22
2022/01/03 07:11:22;;;;;;;4.30;1.57;;;;;;;19.38;57.47;96947.25;10410601;28;20701;-22
2022/01/03 07:21:42;;;;;;;3.83;1.63;;;;;;;19.37;57.03;96952.31;10380131;28;20038;-21
2022/01/03 07:26:42;;;;;;;5.57;2.30;;;;;;;19.40;57.29;96948.09;10370253;28;20111;-21
2022/01/03 07:31:42;;;;;;;6.50;2.10;;;;;;;19.39;55.78;96958.22;10370558;28;20048;-22
2022/01/03 07:36:43;;;;;;;5.97;1.50;;;;;;;19.37;54.84;96958.25;10370097;28;20037;-21
2022/01/03 07:41:43;;;;;;;7.60;1.60;;;;;;;19.32;54.58;96943.84;10370708;28;20548;-21
2022/01/03 07:46:44;;;;;;;4.15;1.48;;;;;;;19.26;54.61;96938.78;10370115;28;20502;-22
2022/01/03 07:51:44;;;;;;;4.23;1.50;;;;;;;19.34;55.30;96944.72;10376786;28;20037;-21
2022/01/03 07:56:44;;;;;;;4.50;1.50;;;;;;;19.35;55.32;96944.69;10392865;28;20033;-21
2022/01/03 08:01:45;;;;;;;6.40;1.73;;;;;;;19.34;55.49;96939.63;10394980;28;20037;-21
2022/01/03 08:06:46;;;;;;;9.52;1.67;;;;;;;19.34;55.89;96937.09;10369561;28;20492;-21
2022/01/03 08:11:46;;;;;;;4.30;1.35;;;;;;;19.35;55.67;96928.63;10369423;28;20493;-21
2022/01/03 08:16:47;;;;;;;3.03;1.30;;;;;;;19.35;55.86;96946.41;10399530;28;20030;-21
2022/01/03 08:21:47;;;;;;;4.47;1.27;;;;;;;19.32;56.08;96943.84;10377737;28;20061;-21
2022/01/03 08:26:49;;;;;;;5.67;1.47;;;;;;;19.35;55.89;96948.94;10368255;28;20285;-20
2022/01/03 08:31:49;;;;;;;8.88;1.58;;;;;;;19.15;53.93;96960.72;10368585;28;20293;-21
2022/01/03 08:36:50;;;;;;;12.23;1.93;;;;;;;19.24;55.36;96959.06;10367633;28;20484;-20
2022/01/03 08:41:50;;;;;;;6.80;1.67;;;;;;;19.28;55.71;96945.56;10368840;28;20338;-21
2022/01/03 08:46:51;;;;;;;6.37;1.87;;;;;;;19.30;55.88;96945.53;10367902;28;20129;-21
2022/01/03 08:51:51;;;;;;;7.63;1.73;;;;;;;19.30;55.99;96950.63;10377442;28;20767;-21
2022/01/03 08:56:51;;;;;;;7.23;1.27;;;;;;;19.28;56.31;96947.25;10367586;28;20037;-21
2022/01/03 09:01:52;;;;;;;7.70;1.73;;;;;;;19.28;56.22;96953.19;10367486;28;20375;-21
2022/01/03 09:06:52;;;;;;;2.80;1.10;;;;;;;19.29;56.23;96943.84;10367167;28;20106;-21
2022/01/03 09:11:53;;;;;;;2.75;1.55;;;;;;;19.30;56.21;96945.53;10367532;28;20120;-21
2022/01/03 09:16:54;;;;;;;4.22;1.23;;;;;;;19.29;56.09;96944.72;10397764;28;20065;-21
2022/01/03 09:22:33;;;;;;;2.80;1.10;;;;;;;19.25;56.10;96937.91;10375800;28;20064;-21
2022/01/03 09:32:41;;;;;;;2.75;1.05;;;;;;;19.26;56.49;96943.84;10374267;28;20455;-21
2022/01/03 09:37:41;;;;;;;3.83;1.10;;;;;;;19.28;56.32;96937.94;10374328;28;20084;-21
2022/01/03 09:42:47;;;;;;;3.92;1.00;;;;;;;19.28;56.45;96947.25;10374193;28;20045;-20
2022/01/03 09:47:52;;;;;;;3.25;1.17;;;;;;;19.28;56.46;96948.09;10373534;28;20057;-21
2022/01/03 09:52:54;;;;;;;2.08;1.17;;;;;;;19.29;56.52;96966.69;10409772;28;20091;-21
2022/01/03 09:57:55;;;;;;;2.30;0.90;;;;;;;19.28;56.39;96963.34;10404465;28;20038;-21
2022/01/03 10:02:56;;;;;;;3.97;1.48;;;;;;;19.29;56.37;96962.47;10372483;28;20481;-21
2022/01/03 10:07:57;;;;;;;2.40;0.90;;;;;;;19.30;56.41;96955.69;10372448;28;20048;-21
2022/01/03 10:12:57;;;;;;;1.83;1.00;;;;;;;19.28;56.27;96950.63;10372654;28;20416;-21
2022/01/03 10:17:58;;;;;;;3.27;1.07;;;;;;;19.28;56.26;96937.09;10412088;28;20044;-21
2022/01/03 10:23:14;;;;;;;2.55;1.00;;;;;;;19.28;56.45;96940.47;10372154;28;20712;-21
2022/01/03 10:28:25;;;;;;;3.28;1.15;;;;;;;19.27;56.49;96933.69;10371733;28;20029;-21
2022/01/03 10:33:26;;;;;;;2.42;0.95;;;;;;;19.28;56.25;96934.53;10371505;28;20030;-22
2022/01/03 10:38:31;;;;;;;1.47;0.80;;;;;;;19.30;56.30;96943.00;10371598;28;20041;-21
2022/01/03 10:43:33;;;;;;;3.33;0.95;;;;;;;19.29;56.59;96928.63;10371512;28;20320;-21
2022/01/03 10:48:34;;;;;;;4.70;1.20;;;;;;;19.35;56.15;96928.63;10372885;28;20017;-21
2022/01/03 10:53:39;;;;;;;2.75;1.77;;;;;;;19.35;56.38;96913.41;10411719;28;20578;-21
2022/01/03 10:58:39;;;;;;;2.50;1.10;;;;;;;19.35;56.01;96909.16;10394201;28;20084;-21
2022/01/03 11:03:43;;;;;;;3.57;0.97;;;;;;;19.36;56.04;96899.84;10371022;28;20057;-21
2022/01/03 11:14:03;;;;;;;1.05;0.80;;;;;;;19.35;56.10;96899.00;10376694;28;20438;-21
2022/01/03 11:19:04;;;;;;;1.45;1.13;;;;;;;19.36;56.10;96884.63;10401338;28;20061;-21
2022/01/03 11:24:09;;;;;;;2.23;0.87;;;;;;;19.37;56.25;96892.25;10370033;28;20116;-21
2022/01/03 11:29:10;;;;;;;1.38;0.70;;;;;;;19.34;56.11;96881.25;10370020;28;20281;-21
2022/01/03 11:34:12;;;;;;;1.63;0.80;;;;;;;19.36;56.21;96887.16;10369504;28;20046;-21
2022/01/03 11:39:13;;;;;;;1.52;0.95;;;;;;;19.35;55.87;96877.84;10369653;28;20145;-22
2022/01/03 11:44:15;;;;;;;2.05;1.10;;;;;;;19.40;56.25;96868.53;10368616;28;20484;-21
2022/01/03 11:49:17;;;;;;;2.60;0.90;;;;;;;19.41;55.96;96852.47;10375519;28;20026;-21
2022/01/03 11:54:20;;;;;;;1.65;0.68;;;;;;;19.36;56.18;96846.53;10409714;28;20591;-21
2022/01/03 11:59:34;;;;;;;2.45;0.60;;;;;;;19.37;56.18;96843.16;10393564;28;20061;-21
2022/01/03 12:04:38;;;;;;;1.60;0.63;;;;;;;19.37;56.14;96835.53;10368232;28;20497;-21
2022/01/03 12:09:43;;;;;;;1.45;0.80;;;;;;;19.36;56.29;96833.84;10368382;28;20030;-21
2022/01/03 12:14:46;;;;;;;1.23;0.60;;;;;;;19.39;55.98;96823.66;10382165;28;20067;-21
2022/01/03 12:19:47;;;;;;;1.60;0.80;;;;;;;19.38;56.12;96819.44;10393866;28;20531;-21
2022/01/03 12:25:03;;;;;;;2.15;0.90;;;;;;;19.36;56.29;96805.91;10368056;28;20348;-21
2022/01/03 12:30:05;;;;;;;1.10;0.70;;;;;;;19.36;56.22;96800.84;10367999;28;20413;-21
2022/01/03 12:35:06;;;;;;;1.30;0.77;;;;;;;19.35;56.31;96783.91;10368117;28;20512;-21
2022/01/03 12:40:06;;;;;;;1.83;0.77;;;;;;;19.36;56.13;96767.84;10367750;28;20137;-21
2022/01/03 12:45:06;;;;;;;1.50;0.90;;;;;;;19.36;56.09;96767.84;10367233;28;20041;-20
2022/01/03 12:50:27;;;;;;;1.30;0.70;;;;;;;19.35;56.34;96756.00;10381649;28;20025;-21
2022/01/03 12:55:36;;;;;;;0.82;0.68;;;;;;;19.33;56.20;96758.53;10407971;28;20547;-21
2022/01/03 13:00:42;;;;;;;1.75;0.80;;;;;;;19.33;56.34;96766.13;10374411;28;20038;-21
2022/01/03 13:05:42;;;;;;;1.25;0.40;;;;;;;19.34;56.26;96759.38;10374808;28;20452;-21
2022/01/03 13:10:42;;;;;;;1.73;0.70;;;;;;;19.33;56.32;96763.59;10375615;28;20087;-21
2022/01/03 13:15:43;;;;;;;1.53;0.70;;;;;;;19.33;56.48;96732.31;10396221;28;20048;-21
2022/01/03 13:20:57;;;;;;;1.10;0.60;;;;;;;19.31;56.22;96709.47;10392736;28;20030;-21
2022/01/03 13:26:03;;;;;;;1.23;0.77;;;;;;;19.35;56.22;96685.72;10374165;28;20709;-21
2022/01/03 13:31:04;;;;;;;1.02;0.70;;;;;;;19.33;56.20;96679.81;10374311;28;20030;-21
2022/01/03 13:36:05;;;;;;;1.27;0.67;;;;;;;19.34;55.97;96655.31;10373824;28;20519;-21
2022/01/03 13:41:15;;;;;;;0.85;0.60;;;;;;;19.34;56.19;96653.59;10374287;28;20095;-21
2022/01/03 13:51:48;;;;;;;2.88;0.90;;;;;;;19.16;49.96;96650.28;10400070;28;20033;-21
2022/01/03 13:56:49;;;;;;;2.80;1.00;;;;;;;18.99;51.37;96650.31;10413734;28;20029;-22
2022/01/03 14:01:50;;;;;;;1.30;0.60;;;;;;;19.16;54.42;96635.03;10374273;28;20508;-21
2022/01/03 14:07:11;;;;;;;12.77;1.90;;;;;;;19.05;51.74;96634.22;10372629;28;20567;-22
2022/01/03 14:12:17;;;;;;;4.00;0.93;;;;;;;19.21;54.91;96625.72;10372585;28;20038;-21
2022/01/03 14:17:17;;;;;;;10.50;1.10;;;;;;;19.26;55.26;96618.94;10406470;28;20116;-21
2022/01/03 14:22:19;;;;;;;7.63;0.90;;;;;;;19.26;55.47;96613.88;10377311;28;20034;-21
2022/01/03 14:27:19;;;;;;;4.22;1.95;;;;;;;19.26;55.46;96602.00;10371827;28;20029;-21
2022/01/03 14:32:19;;;;;;;2.37;0.83;;;;;;;19.30;55.31;96596.09;10372570;28;20116;-21
2022/01/03 14:37:24;;;;;;;9.67;1.30;;;;;;;19.30;55.66;96601.16;10371316;28;20124;-21
2022/01/03 14:42:31;;;;;;;4.25;1.00;;;;;;;19.30;55.39;96595.22;10372013;28;20034;-21
2022/01/03 14:47:31;;;;;;;1.20;0.68;;;;;;;19.30;55.66;96600.31;10371365;28;20563;-21
2022/01/03 14:52:34;;;;;;;1.52;0.70;;;;;;;19.30;55.52;96605.38;10404850;28;20052;-21
2022/01/03 14:57:46;;;;;;;3.63;0.88;;;;;;;19.32;55.42;96606.22;10386247;28;20443;-21
2022/01/03 15:02:48;;;;;;;1.90;0.85;;;;;;;19.32;55.63;96604.53;10371454;28;20496;-21
2022/01/03 15:07:48;;;;;;;3.10;0.90;;;;;;;19.38;55.42;96613.81;10370562;28;20088;-21
2022/01/03 15:12:50;;;;;;;2.23;0.73;;;;;;;19.39;55.44;96606.19;10370406;28;20037;-21
2022/01/03 15:17:51;;;;;;;3.83;0.70;;;;;;;19.35;55.91;96594.34;10408871;28;20114;-21
2022/01/03 15:22:52;;;;;;;2.60;0.90;;;;;;;19.36;55.98;96585.06;10369737;28;20084;-21
2022/01/03 15:27:55;;;;;;;3.22;1.00;;;;;;;19.34;55.70;96589.31;10369657;28;20508;-21
2022/01/03 15:32:55;;;;;;;2.40;0.90;;;;;;;19.32;56.12;96574.06;10369472;28;20033;-21
2022/01/03 15:37:56;;;;;;;5.78;1.50;;;;;;;19.31;56.40;96572.38;10369206;28;20034;-21
2022/01/03 15:42:59;;;;;;;2.83;1.00;;;;;;;19.28;56.24;96562.25;10369221;28;20184;-21
2022/01/03 15:47:59;;;;;;;4.55;1.48;;;;;;;19.32;56.33;96550.38;10368859;28;20484;-21
2022/01/03 15:53:01;;;;;;;5.47;1.20;;;;;;;19.32;56.19;96546.13;10405656;28;20034;-21
2022/01/03 15:58:02;;;;;;;4.35;1.02;;;;;;;19.32;56.38;96547.81;10391205;28;20041;-21
2022/01/03 16:03:04;;;;;;;4.65;1.00;;;;;;;19.33;55.89;96541.94;10369189;28;20649;-21
2022/01/03 16:08:07;;;;;;;3.50;0.90;;;;;;;19.18;55.98;96519.13;10375575;28;20037;-21
2022/01/03 16:13:08;;;;;;;5.22;1.05;;;;;;;19.21;55.91;96530.16;10397396;28;20025;-21
2022/01/03 16:18:09;;;;;;;3.80;0.90;;;;;;;19.35;56.03;96537.66;10402338;28;20484;-21
2022/01/03 16:23:09;;;;;;;2.28;0.85;;;;;;;19.32;56.30;96530.06;10395963;28;20033;-21
2022/01/03 16:28:09;;;;;;;3.33;1.40;;;;;;;19.30;56.01;96529.22;10393572;28;20049;-21
2022/01/03 16:33:10;;;;;;;2.70;0.93;;;;;;;19.31;56.20;96525.84;10407178;28;20043;-21
2022/01/03 16:38:11;;;;;;;3.33;0.80;;;;;;;19.31;56.15;96520.75;10406328;28;20826;-21
2022/01/03 16:43:12;;;;;;;2.22;0.90;;;;;;;19.34;55.93;96501.28;10393251;28;20093;-21
2022/01/03 16:48:13;;;;;;;1.38;0.68;;;;;;;19.41;55.44;96494.47;10414354;28;20042;-20
2022/01/03 16:53:13;;;;;;;2.28;0.90;;;;;;;19.42;55.56;96486.84;10414364;28;20038;-21
2022/01/03 16:58:14;;;;;;;3.70;1.03;;;;;;;19.43;55.13;96482.63;10410474;28;20095;-21
2022/01/03 17:03:14;;;;;;;4.73;1.20;;;;;;;19.44;55.40;96476.69;10374330;28;20034;-21
2022/01/03 17:08:14;;;;;;;5.20;1.37;;;;;;;19.42;55.54;96463.16;10382386;28;20092;-21
2022/01/03 17:13:15;;;;;;;3.10;0.80;;;;;;;19.37;55.62;96447.09;10405508;28;20033;-22
2022/01/03 17:18:16;;;;;;;2.55;0.98;;;;;;;19.40;55.69;96453.00;10413290;28;20188;-21
2022/01/03 17:23:16;;;;;;;2.13;0.93;;;;;;;19.40;55.65;96427.63;10413583;28;20037;-22
2022/01/03 17:28:20;;;;;;;1.83;1.05;;;;;;;19.40;55.75;96425.09;10398793;28;20399;-21
2022/01/03 17:33:20;;;;;;;5.88;1.35;;;;;;;19.38;56.00;96425.94;10374008;28;20143;-21
2022/01/03 17:38:20;;;;;;;4.67;1.27;;;;;;;19.37;55.82;96404.81;10373603;28;20040;-22
2022/01/03 17:43:24;;;;;;;4.73;1.23;;;;;;;19.37;56.32;96396.34;10372050;28;20783;-21
2022/01/03 17:48:26;;;;;;;3.78;1.30;;;;;;;19.44;55.86;96390.34;10373437;28;20084;-21
2022/01/03 17:53:27;;;;;;;5.47;1.92;;;;;;;19.21;55.65;96344.03;10388414;28;20111;-21
2022/01/03 17:58:27;;;;;;;3.13;1.55;;;;;;;19.42;56.54;96384.47;10398446;28;20115;-22
2022/01/03 18:03:28;;;;;;;5.50;2.27;;;;;;;19.37;57.14;96371.81;10401468;28;20478;-21
2022/01/03 18:08:28;;;;;;;3.87;1.93;;;;;;;19.41;57.10;96363.28;10401816;28;20045;-21
2022/01/03 18:13:29;;;;;;;6.70;2.20;;;;;;;19.42;57.02;96352.28;10406395;28;20303;-21
2022/01/03 18:18:29;;;;;;;4.93;2.33;;;;;;;19.39;57.42;96352.31;10409489;28;20034;-21
2022/01/03 18:23:29;;;;;;;6.97;2.50;;;;;;;19.37;57.57;96335.41;10412907;28;20780;-21
2022/01/03 18:28:30;;;;;;;6.13;1.73;;;;;;;19.38;57.33;96330.34;10392961;28;20468;-21
2022/01/03 18:33:31;;;;;;;5.47;2.58;;;;;;;19.45;57.30;96336.19;10370131;28;20319;-21
2022/01/03 18:38:31;;;;;;;6.27;2.27;;;;;;;19.40;57.34;96323.53;10371594;28;20034;-21
2022/01/03 18:43:32;;;;;;;3.85;2.72;;;;;;;19.40;57.51;96318.47;10372797;28;20260;-21
2022/01/03 18:48:33;;;;;;;7.38;2.45;;;;;;;19.41;57.90;96314.22;10390140;28;20038;-21
2022/01/03 18:53:33;;;;;;;5.18;2.17;;;;;;;19.39;58.22;96310.84;10370852;28;20042;-21
2022/01/03 18:58:34;;;;;;;4.37;2.17;;;;;;;19.38;58.24;96301.56;10371098;28;20339;-21
2022/01/03 19:03:34;;;;;;;5.10;2.30;;;;;;;19.38;58.38;96304.94;10386053;28;20355;-21
2022/01/03 19:08:35;;;;;;;7.47;2.13;;;;;;;19.38;58.07;96288.88;10391366;28;20054;-21
2022/01/03 19:13:35;;;;;;;4.80;2.17;;;;;;;19.39;58.15;96280.38;10396558;28;20446;-21
2022/01/03 19:18:35;;;;;;;9.45;2.85;;;;;;;19.38;58.23;96255.84;10404980;28;20488;-22
2022/01/03 19:23:36;;;;;;;6.50;1.97;;;;;;;19.42;57.62;96244.84;10370240;28;20045;-21
2022/01/03 19:28:39;;;;;;;5.72;2.08;;;;;;;19.40;57.87;96247.38;10369520;28;20312;-21
2022/01/03 19:38:53;;;;;;;5.70;2.20;;;;;;;19.38;57.69;96222.84;10389292;28;20559;-21
2022/01/03 19:43:53;;;;;;;7.97;2.10;;;;;;;19.38;57.65;96217.78;10399532;28;20038;-21
2022/01/03 19:48:54;;;;;;;4.03;2.10;;;;;;;19.35;57.85;96205.97;10369119;28;20116;-21
2022/01/03 19:53:55;;;;;;;4.53;2.35;;;;;;;19.39;57.90;96199.16;10368432;28;20065;-21
2022/01/03 19:58:55;;;;;;;3.90;2.00;;;;;;;19.37;58.32;96200.88;10368439;28;20065;-21
2022/01/03 20:03:55;;;;;;;5.80;2.00;;;;;;;19.37;57.84;96190.72;10368310;28;20791;-21
2022/01/03 20:08:56;;;;;;;4.72;1.50;;;;;;;19.39;57.45;96178.84;10367527;28;20030;-21
2022/01/03 20:13:56;;;;;;;3.53;2.10;;;;;;;19.42;57.42;96163.59;10374695;28;20033;-21
2022/01/03 20:18:57;;;;;;;2.70;1.50;;;;;;;19.40;57.30;96166.16;10404653;28;20098;-21
2022/01/03 20:23:57;;;;;;;3.47;2.10;;;;;;;19.41;57.68;96159.38;10408389;28;21013;-21
2022/01/03 20:28:58;;;;;;;3.05;1.75;;;;;;;19.41;58.10;96152.59;10379579;28;20034;-21
2022/01/03 20:33:58;;;;;;;3.90;1.50;;;;;;;19.40;58.14;96134.84;10367189;28;20041;-21
2022/01/03 20:38:59;;;;;;;4.77;2.23;;;;;;;19.39;58.55;96140.78;10367815;28;20405;-21
2022/01/03 20:43:59;;;;;;;7.90;1.90;;;;;;;19.39;58.98;96131.47;10375145;28;20030;-21
2022/01/03 20:49:00;;;;;;;5.67;1.80;;;;;;;19.39;59.05;96120.47;10390374;28;20037;-21
2022/01/03 20:54:00;;;;;;;2.67;1.48;;;;;;;19.41;58.95;96123.84;10405177;28;20272;-21
2022/01/03 20:59:01;;;;;;;5.20;1.40;;;;;;;19.41;59.05;96118.78;10381157;28;20038;-21
2022/01/03 21:04:01;;;;;;;5.18;1.50;;;;;;;19.43;58.49;96104.34;10379990;28;20038;-21
2022/01/03 21:09:03;;;;;;;3.42;1.48;;;;;;;19.41;58.33;96093.38;10386290;28;20068;-21
2022/01/03 21:14:03;;;;;;;5.50;1.50;;;;;;;19.42;58.14;96077.28;10393243;28;20111;-21
2022/01/03 21:19:04;;;;;;;4.30;1.50;;;;;;;19.42;57.98;96072.22;10394175;28;20083;-21
2022/01/03 21:24:05;;;;;;;5.45;1.40;;;;;;;19.42;58.20;96044.28;10384356;28;20072;-21
2022/01/03 21:29:06;;;;;;;5.90;1.70;;;;;;;19.40;58.15;96058.69;10374182;28;20038;-21
2022/01/03 21:34:06;;;;;;;6.20;1.90;;;;;;;19.39;58.21;96051.94;10373287;28;20508;-21
2022/01/03 21:39:06;;;;;;;6.82;2.20;;;;;;;19.42;58.06;96044.28;10373596;28;20053;-21
2022/01/03 21:44:07;;;;;;;3.80;1.40;;;;;;;19.40;58.48;96033.28;10373506;28;20423;-21
2022/01/03 21:49:07;;;;;;;4.83;1.60;;;;;;;19.39;57.95;96034.16;10372853;28;20084;-21
2022/01/03 21:54:08;;;;;;;5.63;1.40;;;;;;;19.38;58.16;96012.19;10418102;28;20302;-21
2022/01/03 21:59:08;;;;;;;6.80;1.58;;;;;;;19.38;58.01;96020.66;10421889;28;20505;-21
2022/01/03 22:04:09;;;;;;;4.85;1.63;;;;;;;19.42;57.81;96013.81;10372108;28;20052;-21
2022/01/03 22:09:09;;;;;;;9.13;2.17;;;;;;;19.41;57.67;96009.63;10372681;28;20096;-21
2022/01/03 22:14:10;;;;;;;6.75;1.25;;;;;;;19.38;57.93;96005.41;10380853;28;20131;-21
2022/01/03 22:19:10;;;;;;;6.00;1.57;;;;;;;19.34;57.97;95988.53;10408837;28;20052;-21
2022/01/03 22:24:10;;;;;;;5.73;1.70;;;;;;;19.37;58.15;95993.59;10387862;28;20667;-21
2022/01/03 22:29:11;;;;;;;3.38;1.30;;;;;;;19.37;58.07;95987.66;10371666;28;20510;-21
2022/01/03 22:34:11;;;;;;;3.10;1.63;;;;;;;19.36;58.11;95986.00;10371033;28;20041;-21
2022/01/03 22:39:12;;;;;;;6.83;1.43;;;;;;;19.35;57.93;95985.13;10369904;28;20100;-21
2022/01/03 22:44:12;;;;;;;5.20;2.73;;;;;;;19.36;58.51;95978.38;10371447;28;20038;-21
2022/01/03 22:49:12;;;;;;;7.10;1.50;;;;;;;19.36;58.06;95979.22;10370842;28;20771;-21
2022/01/03 22:54:13;;;;;;;4.07;1.97;;;;;;;19.39;57.85;95963.09;10370436;28;20280;-21
2022/01/03 22:59:16;;;;;;;6.57;1.58;;;;;;;19.38;57.60;95946.19;10370768;28;20041;-21
2022/01/03 23:04:17;;;;;;;4.85;1.80;;;;;;;19.36;57.94;95935.22;10370305;28;20141;-21
2022/01/03 23:09:17;;;;;;;7.93;2.07;;;;;;;19.37;58.14;95931.81;10370340;28;20127;-21
2022/01/03 23:14:18;;;;;;;5.07;1.20;;;;;;;19.35;57.70;95915.78;10379518;28;20295;-20
2022/01/03 23:19:18;;;;;;;12.77;3.20;;;;;;;19.31;57.93;95893.84;10402041;28;20042;-21
2022/01/03 23:24:18;;;;;;;5.07;1.67;;;;;;;19.27;58.03;95894.78;10410337;28;20037;-21
2022/01/03 23:29:19;;;;;;;5.47;1.47;;;;;;;19.36;57.95;95902.22;10397159;28;20038;-21
2022/01/03 23:34:20;;;;;;;5.20;1.73;;;;;;;19.35;57.96;95882.78;10369406;28;20034;-21
2022/01/03 23:39:21;;;;;;;6.32;0.93;;;;;;;19.36;58.22;95879.38;10369031;28;20100;-21
2022/01/03 23:44:22;;;;;;;4.40;1.30;;;;;;;19.37;57.78;95873.44;10368348;28;20072;-21
2022/01/03 23:49:22;;;;;;;8.20;2.72;;;;;;;19.36;58.02;95859.09;10368897;28;20056;-21
2022/01/03 23:54:22;;;;;;;3.17;1.10;;;;;;;19.35;57.86;95863.31;10368670;28;20030;-21